Thackerville, OK (73459)

12:18 PM CST on February 28, 2015 (GMT -0600)
North Gainesville, TX I35 Exit 501 FM1202/CR444 | Change Station
CLOSE
Current Station
Personal Weather Station
Location: Gainesville, TX
Elevation: 853 ft
Nearby Weather Stations
Active Advisory: Winter Weather Advisory Active Notice: Record Report, Local Storm Report

Elev 853 ft 33.68 °N, 97.19 °W | Updated 5 minutes ago

Overcast
Overcast
30.2 °F
Feels Like 25 °F
N
4.7
Wind Variable Wind from ESE

Today
High -- | Low -- °F
--% Chance of Precip.
Yesterday
High -- | Low -- °F
Precip. -- in
6:58 AM 6:24 PM
Waxing Gibbous, 79% visible
Pressure 30.42 in
Visibility 1.8 miles
Clouds Overcast 900 ft
Windchill 25 °F
Dew Point 29 °F
Humidity 96%
Rainfall 0.00 in
Snow Depth Not available.
UV 2 out of 12
Pollen 4.20 out of 12
Air Quality Not available.
Flu Activity Not available.
METAR KGLE 281755Z AUTO 09005KT 1 3/4SM UP OVC009 M02/M03 A3042 RMK AO2 60001 T10201030 11020 21053

More Conditions Fewer Conditions

Pressure 30.42 in
Visibility 1.8 miles
Clouds Overcast 900 ft
Windchill 25 °F
Dew Point 29 °F
Humidity 96%
Rainfall 0.00 in
Snow Depth Not available.
UV 2 out of 12
Pollen 4.20 out of 12
Air Quality Not available.
Flu Activity Not available.
METAR KGLE 281755Z AUTO 09005KT 1 3/4SM UP OVC009 M02/M03 A3042 RMK AO2 60001 T10201030 11020 21053

More Conditions Fewer Conditions

10-Day Weather Forecast

Almanac

Astronomy

Feb. 28, 2015 Rise Set
Actual Time
Civil Twilight
Nautical Twilight
Astronomical Twilight
Moon
Length of Visible Light
Length of Day
Tomorrow will be .
, % of the Moon is Illuminated

Today's Extremes

State Highs State Lows

Community

WunderPhotos

Upload Photos

1,801,104 photos uploaded!

WunderBlogs® & News

Nearby

Air Quality

  Air Quality AQ Index Pollutant
Not available.

Snow Depth

Station Depth Elevation

Earthquake Activity

City Distance Mag. Time & Date
Minimum magnitude displayed is 2.5.

Coastal Water Temperatures

Place Temperature

Nearby Weather Stations

Winter Weather Advisory
Statement as of 10:52 AM CST on February 28, 2015

... Winter Weather Advisory remains in effect until 6 PM CST this
evening...

A Winter Weather Advisory remains in effect until 6 PM CST this
evening.

* Main impact: patchy freezing drizzle will continue be possible
through this afternoon after the snow tapers off.

* Roads and walkways: roads and walkways will be slick and
hazardous. Travel is discouraged!

Precautionary/preparedness actions...

Be careful if you have to travel. Even small amounts of ice and
snow can make roads and sidewalks slick and dangerous.